sensor_id;sensor_type;location;lat;lon;timestamp;P1;durP1;ratioP1;P2;durP2;ratioP2
19179;SDS011;9722;48.754;8.868;2022-08-19T00:00:08;13.07;;;12.07;;
19179;SDS011;9722;48.754;8.868;2022-08-19T00:03:30;12.40;;;11.47;;
19179;SDS011;9722;48.754;8.868;2022-08-19T00:06:51;12.93;;;11.93;;
19179;SDS011;9722;48.754;8.868;2022-08-19T00:10:12;12.97;;;11.77;;
19179;SDS011;9722;48.754;8.868;2022-08-19T00:13:34;12.47;;;11.53;;
19179;SDS011;9722;48.754;8.868;2022-08-19T00:16:55;13.07;;;11.87;;
19179;SDS011;9722;48.754;8.868;2022-08-19T00:20:17;13.53;;;12.37;;
19179;SDS011;9722;48.754;8.868;2022-08-19T00:23:39;13.40;;;12.17;;
19179;SDS011;9722;48.754;8.868;2022-08-19T00:27:00;13.57;;;12.57;;
19179;SDS011;9722;48.754;8.868;2022-08-19T00:30:21;13.60;;;12.60;;
19179;SDS011;9722;48.754;8.868;2022-08-19T00:33:42;13.63;;;12.33;;
19179;SDS011;9722;48.754;8.868;2022-08-19T00:37:03;14.00;;;12.70;;
19179;SDS011;9722;48.754;8.868;2022-08-19T00:40:23;15.00;;;13.67;;
19179;SDS011;9722;48.754;8.868;2022-08-19T00:43:56;14.97;;;13.77;;
19179;SDS011;9722;48.754;8.868;2022-08-19T00:47:24;14.93;;;13.73;;
19179;SDS011;9722;48.754;8.868;2022-08-19T00:50:45;15.47;;;14.10;;
19179;SDS011;9722;48.754;8.868;2022-08-19T00:54:08;14.87;;;13.57;;
19179;SDS011;9722;48.754;8.868;2022-08-19T00:57:41;15.27;;;13.87;;
19179;SDS011;9722;48.754;8.868;2022-08-19T01:01:04;15.13;;;13.77;;
19179;SDS011;9722;48.754;8.868;2022-08-19T01:04:25;15.57;;;14.17;;
19179;SDS011;9722;48.754;8.868;2022-08-19T01:07:46;14.77;;;13.67;;
19179;SDS011;9722;48.754;8.868;2022-08-19T01:11:08;16.53;;;14.60;;
19179;SDS011;9722;48.754;8.868;2022-08-19T01:14:28;15.53;;;14.30;;
19179;SDS011;9722;48.754;8.868;2022-08-19T01:17:50;15.27;;;14.17;;
19179;SDS011;9722;48.754;8.868;2022-08-19T01:21:24;14.93;;;13.37;;
19179;SDS011;9722;48.754;8.868;2022-08-19T01:24:51;15.40;;;14.20;;
19179;SDS011;9722;48.754;8.868;2022-08-19T01:28:16;16.33;;;15.03;;
19179;SDS011;9722;48.754;8.868;2022-08-19T01:31:41;16.70;;;15.17;;
19179;SDS011;9722;48.754;8.868;2022-08-19T01:35:02;17.13;;;15.63;;
19179;SDS011;9722;48.754;8.868;2022-08-19T01:38:25;15.87;;;14.47;;
19179;SDS011;9722;48.754;8.868;2022-08-19T01:41:47;16.30;;;14.80;;
19179;SDS011;9722;48.754;8.868;2022-08-19T01:45:08;15.50;;;14.20;;
19179;SDS011;9722;48.754;8.868;2022-08-19T01:48:33;15.70;;;14.40;;
19179;SDS011;9722;48.754;8.868;2022-08-19T01:51:55;15.77;;;14.63;;
19179;SDS011;9722;48.754;8.868;2022-08-19T01:55:18;15.83;;;14.43;;
19179;SDS011;9722;48.754;8.868;2022-08-19T01:58:41;17.07;;;15.33;;
19179;SDS011;9722;48.754;8.868;2022-08-19T02:02:08;15.73;;;14.53;;
19179;SDS011;9722;48.754;8.868;2022-08-19T02:05:29;15.17;;;13.77;;
19179;SDS011;9722;48.754;8.868;2022-08-19T02:08:50;16.07;;;14.57;;
19179;SDS011;9722;48.754;8.868;2022-08-19T02:12:10;16.33;;;14.83;;
19179;SDS011;9722;48.754;8.868;2022-08-19T02:15:31;15.47;;;14.17;;
19179;SDS011;9722;48.754;8.868;2022-08-19T02:18:51;15.93;;;14.60;;
19179;SDS011;9722;48.754;8.868;2022-08-19T02:22:12;15.07;;;13.90;;
19179;SDS011;9722;48.754;8.868;2022-08-19T02:25:32;16.17;;;14.87;;
19179;SDS011;9722;48.754;8.868;2022-08-19T02:28:53;15.87;;;14.37;;
19179;SDS011;9722;48.754;8.868;2022-08-19T02:32:14;16.37;;;14.90;;
19179;SDS011;9722;48.754;8.868;2022-08-19T02:35:35;17.53;;;15.87;;
19179;SDS011;9722;48.754;8.868;2022-08-19T02:38:56;16.80;;;15.47;;
19179;SDS011;9722;48.754;8.868;2022-08-19T02:42:16;16.70;;;15.20;;
19179;SDS011;9722;48.754;8.868;2022-08-19T02:45:38;17.23;;;15.73;;
19179;SDS011;9722;48.754;8.868;2022-08-19T02:49:04;18.10;;;16.60;;
19179;SDS011;9722;48.754;8.868;2022-08-19T02:52:26;17.57;;;15.97;;
19179;SDS011;9722;48.754;8.868;2022-08-19T02:55:47;17.80;;;16.40;;
19179;SDS011;9722;48.754;8.868;2022-08-19T02:59:09;18.07;;;15.77;;
19179;SDS011;9722;48.754;8.868;2022-08-19T03:02:31;18.13;;;16.67;;
19179;SDS011;9722;48.754;8.868;2022-08-19T03:06:01;18.33;;;16.93;;
19179;SDS011;9722;48.754;8.868;2022-08-19T03:09:29;18.90;;;17.30;;
19179;SDS011;9722;48.754;8.868;2022-08-19T03:12:50;19.07;;;17.40;;
19179;SDS011;9722;48.754;8.868;2022-08-19T03:16:11;18.97;;;17.17;;
19179;SDS011;9722;48.754;8.868;2022-08-19T03:19:32;19.73;;;18.17;;
19179;SDS011;9722;48.754;8.868;2022-08-19T03:22:52;19.70;;;17.93;;
19179;SDS011;9722;48.754;8.868;2022-08-19T03:26:13;20.20;;;18.57;;
19179;SDS011;9722;48.754;8.868;2022-08-19T03:29:37;20.27;;;18.23;;
19179;SDS011;9722;48.754;8.868;2022-08-19T03:32:59;19.80;;;18.10;;
19179;SDS011;9722;48.754;8.868;2022-08-19T03:36:21;19.60;;;17.83;;
19179;SDS011;9722;48.754;8.868;2022-08-19T03:39:43;18.87;;;17.37;;
19179;SDS011;9722;48.754;8.868;2022-08-19T03:43:03;19.90;;;18.03;;
19179;SDS011;9722;48.754;8.868;2022-08-19T03:46:27;20.30;;;18.50;;
19179;SDS011;9722;48.754;8.868;2022-08-19T03:49:49;20.73;;;18.93;;
19179;SDS011;9722;48.754;8.868;2022-08-19T03:53:10;19.50;;;17.70;;
19179;SDS011;9722;48.754;8.868;2022-08-19T03:56:30;20.23;;;18.50;;
19179;SDS011;9722;48.754;8.868;2022-08-19T03:59:52;20.57;;;18.77;;
19179;SDS011;9722;48.754;8.868;2022-08-19T04:03:13;20.07;;;18.00;;
19179;SDS011;9722;48.754;8.868;2022-08-19T04:06:34;22.03;;;19.93;;
19179;SDS011;9722;48.754;8.868;2022-08-19T04:09:56;20.37;;;18.57;;
19179;SDS011;9722;48.754;8.868;2022-08-19T04:13:17;20.43;;;18.57;;
19179;SDS011;9722;48.754;8.868;2022-08-19T04:16:38;19.97;;;18.17;;
19179;SDS011;9722;48.754;8.868;2022-08-19T04:19:59;20.27;;;18.17;;
19179;SDS011;9722;48.754;8.868;2022-08-19T04:23:19;19.63;;;17.83;;
19179;SDS011;9722;48.754;8.868;2022-08-19T04:26:40;18.17;;;16.57;;
19179;SDS011;9722;48.754;8.868;2022-08-19T04:30:01;18.83;;;17.13;;
19179;SDS011;9722;48.754;8.868;2022-08-19T04:33:23;18.37;;;16.57;;
19179;SDS011;9722;48.754;8.868;2022-08-19T04:36:44;19.13;;;17.43;;
19179;SDS011;9722;48.754;8.868;2022-08-19T04:40:05;19.60;;;17.90;;
19179;SDS011;9722;48.754;8.868;2022-08-19T04:43:45;19.53;;;17.87;;
19179;SDS011;9722;48.754;8.868;2022-08-19T04:47:08;20.60;;;18.60;;
19179;SDS011;9722;48.754;8.868;2022-08-19T04:50:29;20.50;;;18.73;;
19179;SDS011;9722;48.754;8.868;2022-08-19T04:53:49;19.93;;;18.03;;
19179;SDS011;9722;48.754;8.868;2022-08-19T04:57:12;19.97;;;18.37;;
19179;SDS011;9722;48.754;8.868;2022-08-19T05:00:32;20.73;;;18.90;;
19179;SDS011;9722;48.754;8.868;2022-08-19T05:03:53;20.03;;;18.23;;
19179;SDS011;9722;48.754;8.868;2022-08-19T05:07:14;20.87;;;19.07;;
19179;SDS011;9722;48.754;8.868;2022-08-19T05:10:35;20.40;;;18.60;;
19179;SDS011;9722;48.754;8.868;2022-08-19T05:13:57;19.90;;;18.00;;
19179;SDS011;9722;48.754;8.868;2022-08-19T05:17:17;20.07;;;18.27;;
19179;SDS011;9722;48.754;8.868;2022-08-19T05:20:38;20.83;;;18.97;;
19179;SDS011;9722;48.754;8.868;2022-08-19T05:24:18;19.73;;;18.03;;
19179;SDS011;9722;48.754;8.868;2022-08-19T05:27:41;19.70;;;18.13;;
19179;SDS011;9722;48.754;8.868;2022-08-19T05:31:02;19.97;;;18.27;;
19179;SDS011;9722;48.754;8.868;2022-08-19T05:34:23;21.57;;;19.57;;
19179;SDS011;9722;48.754;8.868;2022-08-19T05:37:45;19.60;;;18.03;;
19179;SDS011;9722;48.754;8.868;2022-08-19T05:41:09;20.53;;;18.73;;
19179;SDS011;9722;48.754;8.868;2022-08-19T05:44:32;21.60;;;19.80;;
19179;SDS011;9722;48.754;8.868;2022-08-19T05:47:55;21.80;;;19.90;;
19179;SDS011;9722;48.754;8.868;2022-08-19T05:51:16;20.37;;;18.60;;
19179;SDS011;9722;48.754;8.868;2022-08-19T05:54:37;22.40;;;20.30;;
19179;SDS011;9722;48.754;8.868;2022-08-19T05:58:01;20.93;;;19.03;;
19179;SDS011;9722;48.754;8.868;2022-08-19T06:01:21;20.60;;;18.53;;
19179;SDS011;9722;48.754;8.868;2022-08-19T06:04:42;20.80;;;18.93;;
19179;SDS011;9722;48.754;8.868;2022-08-19T06:08:03;20.00;;;17.97;;
19179;SDS011;9722;48.754;8.868;2022-08-19T06:11:28;19.17;;;17.60;;
19179;SDS011;9722;48.754;8.868;2022-08-19T06:14:53;18.97;;;17.37;;
19179;SDS011;9722;48.754;8.868;2022-08-19T06:18:15;19.13;;;17.73;;
19179;SDS011;9722;48.754;8.868;2022-08-19T06:21:37;19.30;;;17.70;;
19179;SDS011;9722;48.754;8.868;2022-08-19T06:24:58;19.37;;;17.63;;
19179;SDS011;9722;48.754;8.868;2022-08-19T06:28:19;19.23;;;17.60;;
19179;SDS011;9722;48.754;8.868;2022-08-19T06:31:41;19.17;;;17.60;;
19179;SDS011;9722;48.754;8.868;2022-08-19T06:35:04;18.00;;;16.40;;
19179;SDS011;9722;48.754;8.868;2022-08-19T06:38:25;17.27;;;15.87;;
19179;SDS011;9722;48.754;8.868;2022-08-19T06:41:46;17.80;;;16.40;;
19179;SDS011;9722;48.754;8.868;2022-08-19T06:45:08;18.40;;;16.90;;
19179;SDS011;9722;48.754;8.868;2022-08-19T06:48:29;17.47;;;16.07;;
19179;SDS011;9722;48.754;8.868;2022-08-19T06:51:50;17.60;;;16.17;;
19179;SDS011;9722;48.754;8.868;2022-08-19T06:55:11;18.13;;;16.50;;
19179;SDS011;9722;48.754;8.868;2022-08-19T06:58:31;16.97;;;15.40;;
19179;SDS011;9722;48.754;8.868;2022-08-19T07:01:53;17.07;;;15.60;;
19179;SDS011;9722;48.754;8.868;2022-08-19T07:05:15;18.03;;;16.37;;
19179;SDS011;9722;48.754;8.868;2022-08-19T07:08:37;16.50;;;15.17;;
19179;SDS011;9722;48.754;8.868;2022-08-19T07:12:00;16.50;;;15.17;;
19179;SDS011;9722;48.754;8.868;2022-08-19T07:15:21;15.23;;;13.93;;
19179;SDS011;9722;48.754;8.868;2022-08-19T07:18:43;17.30;;;15.90;;
19179;SDS011;9722;48.754;8.868;2022-08-19T07:22:05;15.50;;;14.40;;
19179;SDS011;9722;48.754;8.868;2022-08-19T07:25:26;16.20;;;15.00;;
19179;SDS011;9722;48.754;8.868;2022-08-19T07:28:48;15.97;;;14.67;;
19179;SDS011;9722;48.754;8.868;2022-08-19T07:32:09;16.37;;;15.10;;
19179;SDS011;9722;48.754;8.868;2022-08-19T07:35:31;16.03;;;14.67;;
19179;SDS011;9722;48.754;8.868;2022-08-19T07:38:52;15.97;;;14.67;;
19179;SDS011;9722;48.754;8.868;2022-08-19T07:42:14;15.23;;;13.97;;
19179;SDS011;9722;48.754;8.868;2022-08-19T07:45:34;14.87;;;13.77;;
19179;SDS011;9722;48.754;8.868;2022-08-19T07:48:55;14.87;;;13.57;;
19179;SDS011;9722;48.754;8.868;2022-08-19T07:52:15;15.33;;;14.07;;
19179;SDS011;9722;48.754;8.868;2022-08-19T07:55:36;15.70;;;14.27;;
19179;SDS011;9722;48.754;8.868;2022-08-19T07:58:57;15.80;;;14.17;;
19179;SDS011;9722;48.754;8.868;2022-08-19T08:02:17;15.70;;;14.50;;
19179;SDS011;9722;48.754;8.868;2022-08-19T08:05:38;14.60;;;13.47;;
19179;SDS011;9722;48.754;8.868;2022-08-19T08:09:18;15.03;;;13.93;;
19179;SDS011;9722;48.754;8.868;2022-08-19T08:12:41;13.87;;;12.60;;
19179;SDS011;9722;48.754;8.868;2022-08-19T08:16:03;14.33;;;13.23;;
19179;SDS011;9722;48.754;8.868;2022-08-19T08:19:25;13.17;;;12.07;;
19179;SDS011;9722;48.754;8.868;2022-08-19T08:22:47;13.37;;;12.37;;
19179;SDS011;9722;48.754;8.868;2022-08-19T08:26:26;13.50;;;12.50;;
19179;SDS011;9722;48.754;8.868;2022-08-19T08:29:47;13.03;;;12.13;;
19179;SDS011;9722;48.754;8.868;2022-08-19T08:33:09;14.00;;;12.80;;
19179;SDS011;9722;48.754;8.868;2022-08-19T08:36:29;13.70;;;12.60;;
19179;SDS011;9722;48.754;8.868;2022-08-19T08:39:53;13.80;;;12.77;;
19179;SDS011;9722;48.754;8.868;2022-08-19T08:43:22;12.90;;;11.97;;
19179;SDS011;9722;48.754;8.868;2022-08-19T08:46:56;13.17;;;12.27;;
19179;SDS011;9722;48.754;8.868;2022-08-19T08:53:50;13.10;;;12.03;;
19179;SDS011;9722;48.754;8.868;2022-08-19T08:57:21;11.93;;;10.93;;
19179;SDS011;9722;48.754;8.868;2022-08-19T09:01:02;12.23;;;11.40;;
19179;SDS011;9722;48.754;8.868;2022-08-19T09:04:23;11.67;;;10.87;;
19179;SDS011;9722;48.754;8.868;2022-08-19T09:07:53;13.07;;;12.10;;
19179;SDS011;9722;48.754;8.868;2022-08-19T09:11:37;12.67;;;11.57;;
19179;SDS011;9722;48.754;8.868;2022-08-19T09:15:18;13.23;;;12.33;;
19179;SDS011;9722;48.754;8.868;2022-08-19T09:18:56;13.27;;;12.27;;
19179;SDS011;9722;48.754;8.868;2022-08-19T09:22:20;12.77;;;11.87;;
19179;SDS011;9722;48.754;8.868;2022-08-19T09:25:41;12.50;;;11.47;;
19179;SDS011;9722;48.754;8.868;2022-08-19T09:29:02;13.13;;;12.00;;
19179;SDS011;9722;48.754;8.868;2022-08-19T09:32:25;13.10;;;12.07;;
19179;SDS011;9722;48.754;8.868;2022-08-19T09:35:46;12.47;;;11.57;;
19179;SDS011;9722;48.754;8.868;2022-08-19T09:39:06;12.93;;;11.93;;
19179;SDS011;9722;48.754;8.868;2022-08-19T09:42:27;12.23;;;11.37;;
19179;SDS011;9722;48.754;8.868;2022-08-19T09:45:47;14.10;;;12.33;;
19179;SDS011;9722;48.754;8.868;2022-08-19T09:49:08;11.60;;;10.70;;
19179;SDS011;9722;48.754;8.868;2022-08-19T09:52:28;11.80;;;10.90;;
19179;SDS011;9722;48.754;8.868;2022-08-19T09:55:49;12.10;;;10.90;;
19179;SDS011;9722;48.754;8.868;2022-08-19T09:59:10;11.67;;;10.77;;
19179;SDS011;9722;48.754;8.868;2022-08-19T10:02:31;11.20;;;10.40;;
19179;SDS011;9722;48.754;8.868;2022-08-19T10:05:52;11.20;;;10.40;;
19179;SDS011;9722;48.754;8.868;2022-08-19T10:09:14;10.90;;;9.93;;
19179;SDS011;9722;48.754;8.868;2022-08-19T10:12:36;10.90;;;9.90;;
19179;SDS011;9722;48.754;8.868;2022-08-19T10:16:02;9.83;;;9.00;;
19179;SDS011;9722;48.754;8.868;2022-08-19T10:19:43;9.97;;;9.20;;
19179;SDS011;9722;48.754;8.868;2022-08-19T10:23:03;10.20;;;9.20;;
19179;SDS011;9722;48.754;8.868;2022-08-19T10:26:29;9.30;;;8.70;;
19179;SDS011;9722;48.754;8.868;2022-08-19T10:29:52;10.17;;;9.13;;
19179;SDS011;9722;48.754;8.868;2022-08-19T10:33:13;9.77;;;8.87;;
19179;SDS011;9722;48.754;8.868;2022-08-19T10:36:35;10.20;;;9.50;;
19179;SDS011;9722;48.754;8.868;2022-08-19T10:39:56;9.90;;;9.10;;
19179;SDS011;9722;48.754;8.868;2022-08-19T10:43:17;9.43;;;8.73;;
19179;SDS011;9722;48.754;8.868;2022-08-19T10:46:41;8.90;;;8.00;;
19179;SDS011;9722;48.754;8.868;2022-08-19T10:50:04;8.60;;;7.93;;
19179;SDS011;9722;48.754;8.868;2022-08-19T10:53:47;9.03;;;8.13;;
19179;SDS011;9722;48.754;8.868;2022-08-19T10:57:11;9.43;;;8.53;;
19179;SDS011;9722;48.754;8.868;2022-08-19T11:00:31;7.63;;;7.13;;
19179;SDS011;9722;48.754;8.868;2022-08-19T11:03:52;8.67;;;8.07;;
19179;SDS011;9722;48.754;8.868;2022-08-19T11:07:12;7.60;;;7.10;;
19179;SDS011;9722;48.754;8.868;2022-08-19T11:10:33;8.53;;;7.77;;
19179;SDS011;9722;48.754;8.868;2022-08-19T11:13:54;7.60;;;6.90;;
19179;SDS011;9722;48.754;8.868;2022-08-19T11:17:15;9.07;;;7.27;;
19179;SDS011;9722;48.754;8.868;2022-08-19T11:20:35;7.03;;;6.63;;
19179;SDS011;9722;48.754;8.868;2022-08-19T11:23:59;7.00;;;6.50;;
19179;SDS011;9722;48.754;8.868;2022-08-19T11:27:21;10.07;;;8.07;;
19179;SDS011;9722;48.754;8.868;2022-08-19T11:30:41;7.93;;;7.13;;
19179;SDS011;9722;48.754;8.868;2022-08-19T11:34:03;6.67;;;6.17;;
19179;SDS011;9722;48.754;8.868;2022-08-19T11:37:25;8.07;;;7.30;;
19179;SDS011;9722;48.754;8.868;2022-08-19T11:40:53;7.00;;;6.40;;
19179;SDS011;9722;48.754;8.868;2022-08-19T11:44:14;7.33;;;6.83;;
19179;SDS011;9722;48.754;8.868;2022-08-19T11:47:35;6.60;;;6.03;;
19179;SDS011;9722;48.754;8.868;2022-08-19T11:50:56;5.67;;;5.33;;
19179;SDS011;9722;48.754;8.868;2022-08-19T11:54:16;5.47;;;5.07;;
19179;SDS011;9722;48.754;8.868;2022-08-19T11:57:37;6.03;;;5.63;;
19179;SDS011;9722;48.754;8.868;2022-08-19T12:00:58;4.83;;;4.53;;
19179;SDS011;9722;48.754;8.868;2022-08-19T12:04:18;5.03;;;4.63;;
19179;SDS011;9722;48.754;8.868;2022-08-19T12:07:39;5.73;;;5.20;;
19179;SDS011;9722;48.754;8.868;2022-08-19T12:11:03;4.87;;;4.20;;
19179;SDS011;9722;48.754;8.868;2022-08-19T12:14:27;4.97;;;4.57;;
19179;SDS011;9722;48.754;8.868;2022-08-19T12:17:50;4.07;;;3.67;;
19179;SDS011;9722;48.754;8.868;2022-08-19T12:21:15;4.70;;;4.40;;
19179;SDS011;9722;48.754;8.868;2022-08-19T12:24:38;4.40;;;4.10;;
19179;SDS011;9722;48.754;8.868;2022-08-19T12:27:58;5.23;;;4.70;;
19179;SDS011;9722;48.754;8.868;2022-08-19T12:31:19;4.00;;;3.77;;
19179;SDS011;9722;48.754;8.868;2022-08-19T12:34:39;4.60;;;4.30;;
19179;SDS011;9722;48.754;8.868;2022-08-19T12:38:00;3.93;;;3.63;;
19179;SDS011;9722;48.754;8.868;2022-08-19T12:41:22;3.97;;;3.67;;
19179;SDS011;9722;48.754;8.868;2022-08-19T12:44:43;4.10;;;3.80;;
19179;SDS011;9722;48.754;8.868;2022-08-19T12:48:05;4.93;;;3.93;;
19179;SDS011;9722;48.754;8.868;2022-08-19T12:51:25;4.03;;;3.73;;
19179;SDS011;9722;48.754;8.868;2022-08-19T12:54:46;4.07;;;3.77;;
19179;SDS011;9722;48.754;8.868;2022-08-19T12:58:07;5.73;;;4.03;;
19179;SDS011;9722;48.754;8.868;2022-08-19T13:01:28;4.10;;;3.90;;
19179;SDS011;9722;48.754;8.868;2022-08-19T13:04:52;4.43;;;4.17;;
19179;SDS011;9722;48.754;8.868;2022-08-19T13:08:12;4.37;;;4.07;;
19179;SDS011;9722;48.754;8.868;2022-08-19T13:11:33;4.50;;;4.30;;
19179;SDS011;9722;48.754;8.868;2022-08-19T13:14:54;5.70;;;5.07;;
19179;SDS011;9722;48.754;8.868;2022-08-19T13:18:15;5.10;;;4.70;;
19179;SDS011;9722;48.754;8.868;2022-08-19T13:21:36;5.53;;;4.93;;
19179;SDS011;9722;48.754;8.868;2022-08-19T13:24:56;5.57;;;5.20;;
19179;SDS011;9722;48.754;8.868;2022-08-19T13:28:17;6.17;;;5.57;;
19179;SDS011;9722;48.754;8.868;2022-08-19T13:31:39;5.37;;;5.00;;
19179;SDS011;9722;48.754;8.868;2022-08-19T13:35:19;5.50;;;5.20;;
19179;SDS011;9722;48.754;8.868;2022-08-19T13:38:39;6.43;;;6.03;;
19179;SDS011;9722;48.754;8.868;2022-08-19T13:42:00;5.60;;;5.07;;
19179;SDS011;9722;48.754;8.868;2022-08-19T13:45:22;5.80;;;5.40;;
19179;SDS011;9722;48.754;8.868;2022-08-19T13:48:44;5.77;;;5.47;;
19179;SDS011;9722;48.754;8.868;2022-08-19T13:52:06;6.20;;;5.80;;
19179;SDS011;9722;48.754;8.868;2022-08-19T13:55:26;6.27;;;5.87;;
19179;SDS011;9722;48.754;8.868;2022-08-19T13:58:47;6.17;;;5.67;;
19179;SDS011;9722;48.754;8.868;2022-08-19T14:02:08;6.20;;;5.80;;
19179;SDS011;9722;48.754;8.868;2022-08-19T14:05:29;5.33;;;5.03;;
19179;SDS011;9722;48.754;8.868;2022-08-19T14:08:51;8.27;;;5.60;;
19179;SDS011;9722;48.754;8.868;2022-08-19T14:12:12;5.87;;;5.53;;
19179;SDS011;9722;48.754;8.868;2022-08-19T14:15:33;5.60;;;5.30;;
19179;SDS011;9722;48.754;8.868;2022-08-19T14:18:54;5.77;;;5.30;;
19179;SDS011;9722;48.754;8.868;2022-08-19T14:22:14;6.30;;;5.90;;
19179;SDS011;9722;48.754;8.868;2022-08-19T14:25:35;5.70;;;5.30;;
19179;SDS011;9722;48.754;8.868;2022-08-19T14:28:55;5.83;;;5.43;;
19179;SDS011;9722;48.754;8.868;2022-08-19T14:32:18;6.20;;;5.80;;
19179;SDS011;9722;48.754;8.868;2022-08-19T14:35:38;5.40;;;5.10;;
19179;SDS011;9722;48.754;8.868;2022-08-19T14:39:04;5.40;;;5.00;;
19179;SDS011;9722;48.754;8.868;2022-08-19T14:42:25;6.07;;;5.77;;
19179;SDS011;9722;48.754;8.868;2022-08-19T14:45:45;5.43;;;5.07;;
19179;SDS011;9722;48.754;8.868;2022-08-19T14:49:06;5.80;;;5.27;;
19179;SDS011;9722;48.754;8.868;2022-08-19T14:52:27;5.67;;;5.27;;
19179;SDS011;9722;48.754;8.868;2022-08-19T14:55:48;5.70;;;5.37;;
19179;SDS011;9722;48.754;8.868;2022-08-19T14:59:08;5.37;;;5.07;;
19179;SDS011;9722;48.754;8.868;2022-08-19T15:02:29;5.50;;;5.10;;
19179;SDS011;9722;48.754;8.868;2022-08-19T15:05:49;5.27;;;4.97;;
19179;SDS011;9722;48.754;8.868;2022-08-19T15:09:10;5.93;;;5.53;;
19179;SDS011;9722;48.754;8.868;2022-08-19T15:12:30;5.37;;;5.07;;
19179;SDS011;9722;48.754;8.868;2022-08-19T15:15:52;5.90;;;5.10;;
19179;SDS011;9722;48.754;8.868;2022-08-19T15:19:12;5.70;;;5.40;;
19179;SDS011;9722;48.754;8.868;2022-08-19T15:22:33;5.73;;;5.43;;
19179;SDS011;9722;48.754;8.868;2022-08-19T15:25:55;5.33;;;4.93;;
19179;SDS011;9722;48.754;8.868;2022-08-19T15:29:15;5.13;;;4.90;;
19179;SDS011;9722;48.754;8.868;2022-08-19T15:32:36;5.37;;;5.07;;
19179;SDS011;9722;48.754;8.868;2022-08-19T15:35:58;7.40;;;5.27;;
19179;SDS011;9722;48.754;8.868;2022-08-19T15:39:19;5.10;;;4.80;;
19179;SDS011;9722;48.754;8.868;2022-08-19T15:42:40;5.20;;;4.90;;
19179;SDS011;9722;48.754;8.868;2022-08-19T15:46:02;5.07;;;4.83;;
19179;SDS011;9722;48.754;8.868;2022-08-19T15:49:23;4.77;;;4.47;;
19179;SDS011;9722;48.754;8.868;2022-08-19T15:52:44;4.73;;;4.43;;
19179;SDS011;9722;48.754;8.868;2022-08-19T15:56:07;5.20;;;4.90;;
19179;SDS011;9722;48.754;8.868;2022-08-19T15:59:28;4.80;;;4.60;;
19179;SDS011;9722;48.754;8.868;2022-08-19T16:03:14;5.00;;;4.60;;
19179;SDS011;9722;48.754;8.868;2022-08-19T16:06:55;4.77;;;4.47;;
19179;SDS011;9722;48.754;8.868;2022-08-19T16:10:17;5.03;;;4.70;;
19179;SDS011;9722;48.754;8.868;2022-08-19T16:13:38;4.33;;;4.03;;
19179;SDS011;9722;48.754;8.868;2022-08-19T16:16:59;4.43;;;4.03;;
19179;SDS011;9722;48.754;8.868;2022-08-19T16:20:20;4.67;;;4.37;;
19179;SDS011;9722;48.754;8.868;2022-08-19T16:23:44;4.50;;;4.10;;
19179;SDS011;9722;48.754;8.868;2022-08-19T16:27:06;4.57;;;4.27;;
19179;SDS011;9722;48.754;8.868;2022-08-19T16:30:26;4.40;;;4.20;;
19179;SDS011;9722;48.754;8.868;2022-08-19T16:33:47;4.70;;;4.40;;
19179;SDS011;9722;48.754;8.868;2022-08-19T16:37:08;7.27;;;4.40;;
19179;SDS011;9722;48.754;8.868;2022-08-19T16:40:29;4.67;;;4.37;;
19179;SDS011;9722;48.754;8.868;2022-08-19T16:43:49;4.40;;;4.10;;
19179;SDS011;9722;48.754;8.868;2022-08-19T16:47:12;4.73;;;4.43;;
19179;SDS011;9722;48.754;8.868;2022-08-19T16:50:33;4.20;;;4.00;;
19179;SDS011;9722;48.754;8.868;2022-08-19T16:53:54;4.20;;;4.00;;
19179;SDS011;9722;48.754;8.868;2022-08-19T16:57:15;4.57;;;4.20;;
19179;SDS011;9722;48.754;8.868;2022-08-19T17:00:35;4.17;;;3.97;;
19179;SDS011;9722;48.754;8.868;2022-08-19T17:03:56;4.13;;;3.93;;
19179;SDS011;9722;48.754;8.868;2022-08-19T17:07:17;4.63;;;4.33;;
19179;SDS011;9722;48.754;8.868;2022-08-19T17:10:38;4.17;;;3.97;;
19179;SDS011;9722;48.754;8.868;2022-08-19T17:14:00;4.03;;;3.73;;
19179;SDS011;9722;48.754;8.868;2022-08-19T17:17:21;4.13;;;3.90;;
19179;SDS011;9722;48.754;8.868;2022-08-19T17:20:42;4.10;;;3.90;;
19179;SDS011;9722;48.754;8.868;2022-08-19T17:24:06;4.17;;;3.87;;
19179;SDS011;9722;48.754;8.868;2022-08-19T17:27:27;3.40;;;3.30;;
19179;SDS011;9722;48.754;8.868;2022-08-19T17:30:48;4.03;;;3.80;;
19179;SDS011;9722;48.754;8.868;2022-08-19T17:34:08;4.17;;;3.87;;
19179;SDS011;9722;48.754;8.868;2022-08-19T17:37:29;4.00;;;3.70;;
19179;SDS011;9722;48.754;8.868;2022-08-19T17:40:50;3.97;;;3.67;;
19179;SDS011;9722;48.754;8.868;2022-08-19T17:44:11;4.57;;;4.17;;
19179;SDS011;9722;48.754;8.868;2022-08-19T17:47:32;4.40;;;4.10;;
19179;SDS011;9722;48.754;8.868;2022-08-19T17:50:53;4.50;;;4.20;;
19179;SDS011;9722;48.754;8.868;2022-08-19T17:54:16;4.00;;;3.70;;
19179;SDS011;9722;48.754;8.868;2022-08-19T17:57:38;4.07;;;3.77;;
19179;SDS011;9722;48.754;8.868;2022-08-19T18:01:00;5.47;;;4.53;;
19179;SDS011;9722;48.754;8.868;2022-08-19T18:04:22;4.13;;;3.80;;
19179;SDS011;9722;48.754;8.868;2022-08-19T18:07:44;4.93;;;4.40;;
19179;SDS011;9722;48.754;8.868;2022-08-19T18:11:06;4.53;;;4.27;;
19179;SDS011;9722;48.754;8.868;2022-08-19T18:14:30;5.47;;;5.07;;
19179;SDS011;9722;48.754;8.868;2022-08-19T18:17:53;4.90;;;4.60;;
19179;SDS011;9722;48.754;8.868;2022-08-19T18:21:14;4.50;;;4.20;;
19179;SDS011;9722;48.754;8.868;2022-08-19T18:24:40;5.87;;;5.47;;
19179;SDS011;9722;48.754;8.868;2022-08-19T18:28:01;5.97;;;5.47;;
19179;SDS011;9722;48.754;8.868;2022-08-19T18:31:21;6.70;;;6.20;;
19179;SDS011;9722;48.754;8.868;2022-08-19T18:34:42;6.50;;;6.10;;
19179;SDS011;9722;48.754;8.868;2022-08-19T18:38:04;7.10;;;6.50;;
19179;SDS011;9722;48.754;8.868;2022-08-19T18:41:45;6.83;;;6.43;;
19179;SDS011;9722;48.754;8.868;2022-08-19T18:45:24;6.63;;;6.10;;
19179;SDS011;9722;48.754;8.868;2022-08-19T18:49:03;6.37;;;5.97;;
19179;SDS011;9722;48.754;8.868;2022-08-19T18:52:24;6.53;;;6.03;;
19179;SDS011;9722;48.754;8.868;2022-08-19T18:55:46;5.83;;;5.43;;
19179;SDS011;9722;48.754;8.868;2022-08-19T18:59:08;6.17;;;5.77;;
19179;SDS011;9722;48.754;8.868;2022-08-19T19:02:35;6.07;;;5.77;;
19179;SDS011;9722;48.754;8.868;2022-08-19T19:06:00;6.47;;;5.97;;
19179;SDS011;9722;48.754;8.868;2022-08-19T19:09:21;5.50;;;5.00;;
19179;SDS011;9722;48.754;8.868;2022-08-19T19:12:42;5.10;;;4.80;;
19179;SDS011;9722;48.754;8.868;2022-08-19T19:16:03;5.33;;;4.83;;
19179;SDS011;9722;48.754;8.868;2022-08-19T19:19:25;5.13;;;4.73;;
19179;SDS011;9722;48.754;8.868;2022-08-19T19:22:45;4.73;;;4.43;;
19179;SDS011;9722;48.754;8.868;2022-08-19T19:26:07;4.97;;;4.67;;
19179;SDS011;9722;48.754;8.868;2022-08-19T19:29:29;5.03;;;4.63;;
19179;SDS011;9722;48.754;8.868;2022-08-19T19:32:50;4.10;;;3.90;;
19179;SDS011;9722;48.754;8.868;2022-08-19T19:36:10;4.17;;;3.90;;
19179;SDS011;9722;48.754;8.868;2022-08-19T19:39:31;4.10;;;3.73;;
19179;SDS011;9722;48.754;8.868;2022-08-19T19:42:52;4.20;;;4.00;;
19179;SDS011;9722;48.754;8.868;2022-08-19T19:46:14;3.80;;;3.50;;
19179;SDS011;9722;48.754;8.868;2022-08-19T19:49:36;4.20;;;3.90;;
19179;SDS011;9722;48.754;8.868;2022-08-19T19:52:59;4.43;;;3.27;;
19179;SDS011;9722;48.754;8.868;2022-08-19T19:56:20;3.70;;;3.50;;
19179;SDS011;9722;48.754;8.868;2022-08-19T19:59:41;4.10;;;3.80;;
19179;SDS011;9722;48.754;8.868;2022-08-19T20:03:03;4.20;;;3.90;;
19179;SDS011;9722;48.754;8.868;2022-08-19T20:06:24;3.87;;;3.47;;
19179;SDS011;9722;48.754;8.868;2022-08-19T20:09:47;4.63;;;3.97;;
19179;SDS011;9722;48.754;8.868;2022-08-19T20:13:09;4.63;;;3.70;;
19179;SDS011;9722;48.754;8.868;2022-08-19T20:16:32;4.37;;;4.00;;
19179;SDS011;9722;48.754;8.868;2022-08-19T20:19:53;3.97;;;3.67;;
19179;SDS011;9722;48.754;8.868;2022-08-19T20:23:17;4.03;;;3.83;;